KROC/ROC METAR and TAF weather

Enter ICAO airport designator
Station Type Date Time Source
KROC METAR 2021/09/23 23:54 UTC NOAA

KROC 232354Z 21008KT 10SM BKN050 BKN070 16/09 A2987 RMK AO2 SLP118 T01560089 10217 20156 53019


Station Type Date Time Source
KROC Decoded METAR 2021/09/23 23:54 UTC NOAA

GREATER ROCHESTER INTERNATIONAL , NY, United States (KROC) 43-07N 077-41W 178M
Sep 23, 2021 - 07:54 PM EDT / 2021.09.23 2354 UTC
Wind: from the SSW (210 degrees) at 9 MPH (8 KT):0
Visibility: 10 mile(s):0
Sky conditions: mostly cloudy
Temperature: 60.1 F (15.6 C)
Dew Point: 48.0 F (8.9 C)
Relative Humidity: 64%
Pressure (altimeter): 29.87 in. Hg (1011 hPa)
Pressure tendency: 0.06 inches (1.9 hPa) higher than three hours ago
ob: KROC 232354Z 21008KT 10SM BKN050 BKN070 16/09 A2987 RMK AO2 SLP118 T01560089 10217 20156 53019
cycle: 0

Station Type Date Time Source
KROC TAF 2021/09/23 21:12 UTC NOAA

TAF
AMD KROC 232108Z 2321/2418 25008KT P6SM BKN045
FM240000 21007KT P6SM SCT080
FM241300 21011G17KT P6SM SCT045

Example: see airport list